sensor_id;sensor_type;location;lat;lon;timestamp;P1;P2;P0
49343;PMS5003;35210;41.606;-87.602;2023-02-28T00:01:26;5.20;4.80;3.00
49343;PMS5003;35210;41.606;-87.602;2023-02-28T00:03:56;4.80;4.20;3.00
49343;PMS5003;35210;41.606;-87.602;2023-02-28T00:06:27;2.80;2.80;2.00
49343;PMS5003;35210;41.606;-87.602;2023-02-28T00:08:55;4.00;4.00;2.80
49343;PMS5003;35210;41.606;-87.602;2023-02-28T00:11:23;6.40;5.80;4.00
49343;PMS5003;35210;41.606;-87.602;2023-02-28T00:13:51;6.00;6.00;4.00
49343;PMS5003;35210;41.606;-87.602;2023-02-28T00:16:20;5.20;5.20;2.60
49343;PMS5003;35210;41.606;-87.602;2023-02-28T00:18:49;6.80;5.40;3.40
49343;PMS5003;35210;41.606;-87.602;2023-02-28T00:21:19;5.00;5.00;3.00
49343;PMS5003;35210;41.606;-87.602;2023-02-28T00:23:47;5.40;5.00;2.40
49343;PMS5003;35210;41.606;-87.602;2023-02-28T00:26:16;4.80;4.80;3.60
49343;PMS5003;35210;41.606;-87.602;2023-02-28T00:28:47;6.00;5.60;3.00
49343;PMS5003;35210;41.606;-87.602;2023-02-28T00:31:15;3.60;3.60;3.00
49343;PMS5003;35210;41.606;-87.602;2023-02-28T00:33:45;4.20;4.20;2.40
49343;PMS5003;35210;41.606;-87.602;2023-02-28T00:36:13;2.60;2.60;2.00
49343;PMS5003;35210;41.606;-87.602;2023-02-28T00:38:44;5.20;5.20;3.00
49343;PMS5003;35210;41.606;-87.602;2023-02-28T00:41:12;3.80;3.80;2.80
49343;PMS5003;35210;41.606;-87.602;2023-02-28T00:43:42;4.80;4.80;3.00
49343;PMS5003;35210;41.606;-87.602;2023-02-28T00:46:10;6.00;4.60;2.40
49343;PMS5003;35210;41.606;-87.602;2023-02-28T00:48:39;3.00;3.00;2.00
49343;PMS5003;35210;41.606;-87.602;2023-02-28T00:51:07;4.40;4.40;2.40
49343;PMS5003;35210;41.606;-87.602;2023-02-28T00:53:35;4.20;4.20;2.00
49343;PMS5003;35210;41.606;-87.602;2023-02-28T00:56:06;5.60;5.60;3.20
49343;PMS5003;35210;41.606;-87.602;2023-02-28T00:58:35;5.00;4.00;3.00
49343;PMS5003;35210;41.606;-87.602;2023-02-28T01:01:03;3.20;3.20;2.20
49343;PMS5003;35210;41.606;-87.602;2023-02-28T01:03:32;4.00;4.00;2.40
49343;PMS5003;35210;41.606;-87.602;2023-02-28T01:06:01;4.00;4.00;2.60
49343;PMS5003;35210;41.606;-87.602;2023-02-28T01:08:29;4.00;4.00;2.00
49343;PMS5003;35210;41.606;-87.602;2023-02-28T01:11:06;3.00;3.00;2.00
49343;PMS5003;35210;41.606;-87.602;2023-02-28T01:13:38;3.60;3.60;2.20
49343;PMS5003;35210;41.606;-87.602;2023-02-28T01:16:10;5.40;5.40;2.80
49343;PMS5003;35210;41.606;-87.602;2023-02-28T01:18:39;6.00;5.00;3.00
49343;PMS5003;35210;41.606;-87.602;2023-02-28T01:21:07;3.20;3.20;2.00
49343;PMS5003;35210;41.606;-87.602;2023-02-28T01:23:38;4.00;4.00;2.00
49343;PMS5003;35210;41.606;-87.602;2023-02-28T01:26:08;4.00;4.00;3.00
49343;PMS5003;35210;41.606;-87.602;2023-02-28T01:28:41;3.00;3.00;1.00
49343;PMS5003;35210;41.606;-87.602;2023-02-28T01:31:10;3.60;3.60;2.00
49343;PMS5003;35210;41.606;-87.602;2023-02-28T01:33:40;2.80;2.80;2.00
49343;PMS5003;35210;41.606;-87.602;2023-02-28T01:36:11;8.20;3.40;2.00
49343;PMS5003;35210;41.606;-87.602;2023-02-28T01:38:42;4.00;4.00;2.40
49343;PMS5003;35210;41.606;-87.602;2023-02-28T01:41:14;5.60;3.80;1.80
49343;PMS5003;35210;41.606;-87.602;2023-02-28T01:43:54;3.00;3.00;1.80
49343;PMS5003;35210;41.606;-87.602;2023-02-28T01:46:30;3.40;3.00;2.00
49343;PMS5003;35210;41.606;-87.602;2023-02-28T01:49:00;4.00;4.00;3.00
49343;PMS5003;35210;41.606;-87.602;2023-02-28T01:51:35;3.00;3.00;2.00
49343;PMS5003;35210;41.606;-87.602;2023-02-28T01:54:12;2.80;2.80;2.00
49343;PMS5003;35210;41.606;-87.602;2023-02-28T01:56:46;4.00;4.00;2.40
49343;PMS5003;35210;41.606;-87.602;2023-02-28T01:59:20;3.00;3.00;1.40
49343;PMS5003;35210;41.606;-87.602;2023-02-28T02:01:53;3.00;3.00;2.00
49343;PMS5003;35210;41.606;-87.602;2023-02-28T02:04:22;3.00;2.00;1.20
49343;PMS5003;35210;41.606;-87.602;2023-02-28T02:06:54;2.00;2.00;1.20
49343;PMS5003;35210;41.606;-87.602;2023-02-28T02:09:22;5.80;4.40;2.80
49343;PMS5003;35210;41.606;-87.602;2023-02-28T02:11:52;5.40;4.00;2.20
49343;PMS5003;35210;41.606;-87.602;2023-02-28T02:14:42;2.80;2.80;1.40
49343;PMS5003;35210;41.606;-87.602;2023-02-28T02:17:25;3.20;3.20;2.20
49343;PMS5003;35210;41.606;-87.602;2023-02-28T02:25:59;4.60;3.00;1.00
49343;PMS5003;35210;41.606;-87.602;2023-02-28T02:29:05;5.40;3.80;2.00
49343;PMS5003;35210;41.606;-87.602;2023-02-28T02:31:51;3.00;3.00;2.00
49343;PMS5003;35210;41.606;-87.602;2023-02-28T02:34:53;2.80;2.80;2.80
49343;PMS5003;35210;41.606;-87.602;2023-02-28T02:37:43;2.00;2.00;1.40
49343;PMS5003;35210;41.606;-87.602;2023-02-28T02:40:19;2.00;2.00;1.00
49343;PMS5003;35210;41.606;-87.602;2023-02-28T02:42:50;3.00;3.00;2.00
49343;PMS5003;35210;41.606;-87.602;2023-02-28T02:45:24;3.20;3.20;2.00
49343;PMS5003;35210;41.606;-87.602;2023-02-28T02:48:02;1.80;1.80;1.00
49343;PMS5003;35210;41.606;-87.602;2023-02-28T02:50:39;3.20;2.40;2.00
49343;PMS5003;35210;41.606;-87.602;2023-02-28T02:53:21;4.40;4.40;2.40
49343;PMS5003;35210;41.606;-87.602;2023-02-28T02:55:56;2.80;2.00;1.80
49343;PMS5003;35210;41.606;-87.602;2023-02-28T02:58:31;7.00;3.40;2.20
49343;PMS5003;35210;41.606;-87.602;2023-02-28T03:01:07;2.00;2.00;1.40
49343;PMS5003;35210;41.606;-87.602;2023-02-28T03:03:40;2.20;2.20;2.20
49343;PMS5003;35210;41.606;-87.602;2023-02-28T03:06:18;2.80;2.80;0.80
49343;PMS5003;35210;41.606;-87.602;2023-02-28T03:08:46;3.80;3.80;2.20
49343;PMS5003;35210;41.606;-87.602;2023-02-28T03:11:15;4.00;3.00;2.00
49343;PMS5003;35210;41.606;-87.602;2023-02-28T03:13:54;2.60;2.60;1.00
49343;PMS5003;35210;41.606;-87.602;2023-02-28T03:16:41;2.80;2.80;2.00
49343;PMS5003;35210;41.606;-87.602;2023-02-28T03:19:33;3.20;3.00;1.80
49343;PMS5003;35210;41.606;-87.602;2023-02-28T03:22:17;2.40;2.40;1.60
49343;PMS5003;35210;41.606;-87.602;2023-02-28T03:24:57;4.00;2.40;1.00
49343;PMS5003;35210;41.606;-87.602;2023-02-28T03:27:42;1.20;1.20;1.00
49343;PMS5003;35210;41.606;-87.602;2023-02-28T03:30:22;1.00;1.00;1.00
49343;PMS5003;35210;41.606;-87.602;2023-02-28T03:32:55;2.60;2.00;0.00
49343;PMS5003;35210;41.606;-87.602;2023-02-28T03:35:30;1.00;1.00;0.00
49343;PMS5003;35210;41.606;-87.602;2023-02-28T03:38:08;1.80;1.80;1.00
49343;PMS5003;35210;41.606;-87.602;2023-02-28T03:40:47;1.00;1.00;0.80
49343;PMS5003;35210;41.606;-87.602;2023-02-28T03:43:23;5.20;2.00;1.00
49343;PMS5003;35210;41.606;-87.602;2023-02-28T03:45:55;0.80;0.80;0.20
49343;PMS5003;35210;41.606;-87.602;2023-02-28T03:48:29;1.00;1.00;1.00
49343;PMS5003;35210;41.606;-87.602;2023-02-28T03:51:02;1.20;1.20;1.00
49343;PMS5003;35210;41.606;-87.602;2023-02-28T03:53:41;1.20;1.00;1.00
49343;PMS5003;35210;41.606;-87.602;2023-02-28T03:56:15;1.00;1.00;1.00
49343;PMS5003;35210;41.606;-87.602;2023-02-28T03:58:47;1.75;1.00;0.25
49343;PMS5003;35210;41.606;-87.602;2023-02-28T04:01:23;1.00;1.00;0.40
49343;PMS5003;35210;41.606;-87.602;2023-02-28T04:03:55;1.00;1.00;1.00
49343;PMS5003;35210;41.606;-87.602;2023-02-28T04:06:23;1.00;1.00;0.20
49343;PMS5003;35210;41.606;-87.602;2023-02-28T04:08:56;1.40;1.40;1.00
49343;PMS5003;35210;41.606;-87.602;2023-02-28T04:11:27;2.20;2.00;1.00
49343;PMS5003;35210;41.606;-87.602;2023-02-28T04:14:01;1.60;1.60;0.60
49343;PMS5003;35210;41.606;-87.602;2023-02-28T04:16:30;2.00;2.00;1.00
49343;PMS5003;35210;41.606;-87.602;2023-02-28T04:18:58;4.80;3.00;2.00
49343;PMS5003;35210;41.606;-87.602;2023-02-28T04:21:30;2.40;2.40;2.00
49343;PMS5003;35210;41.606;-87.602;2023-02-28T04:24:00;4.00;2.60;1.80
49343;PMS5003;35210;41.606;-87.602;2023-02-28T04:26:30;3.40;3.40;2.00
49343;PMS5003;35210;41.606;-87.602;2023-02-28T04:29:00;3.60;2.60;2.00
49343;PMS5003;35210;41.606;-87.602;2023-02-28T04:31:34;2.00;2.00;1.00
49343;PMS5003;35210;41.606;-87.602;2023-02-28T04:34:03;2.40;2.00;2.00
49343;PMS5003;35210;41.606;-87.602;2023-02-28T04:36:32;1.40;1.40;1.00
49343;PMS5003;35210;41.606;-87.602;2023-02-28T04:39:02;2.80;2.80;1.80
49343;PMS5003;35210;41.606;-87.602;2023-02-28T04:41:31;4.00;2.00;1.00
49343;PMS5003;35210;41.606;-87.602;2023-02-28T04:43:59;3.20;3.20;1.60
49343;PMS5003;35210;41.606;-87.602;2023-02-28T04:46:29;2.40;2.40;1.00
49343;PMS5003;35210;41.606;-87.602;2023-02-28T04:48:57;3.00;2.20;1.20
49343;PMS5003;35210;41.606;-87.602;2023-02-28T04:51:27;2.00;2.00;1.20
49343;PMS5003;35210;41.606;-87.602;2023-02-28T04:53:55;3.00;2.60;1.00
49343;PMS5003;35210;41.606;-87.602;2023-02-28T04:56:26;2.00;2.00;1.00
49343;PMS5003;35210;41.606;-87.602;2023-02-28T04:58:56;3.20;2.00;1.00
49343;PMS5003;35210;41.606;-87.602;2023-02-28T05:01:26;2.20;2.20;1.00
49343;PMS5003;35210;41.606;-87.602;2023-02-28T05:03:56;1.80;1.40;1.00
49343;PMS5003;35210;41.606;-87.602;2023-02-28T05:06:27;2.20;2.20;1.40
49343;PMS5003;35210;41.606;-87.602;2023-02-28T05:08:57;2.00;2.00;2.00
49343;PMS5003;35210;41.606;-87.602;2023-02-28T05:11:28;2.40;2.40;1.40
49343;PMS5003;35210;41.606;-87.602;2023-02-28T05:14:00;3.00;2.00;1.00
49343;PMS5003;35210;41.606;-87.602;2023-02-28T05:16:29;2.00;1.40;1.00
49343;PMS5003;35210;41.606;-87.602;2023-02-28T05:18:58;2.60;2.60;1.00
49343;PMS5003;35210;41.606;-87.602;2023-02-28T05:21:27;1.80;1.80;0.20
49343;PMS5003;35210;41.606;-87.602;2023-02-28T05:23:57;2.00;2.00;1.00
49343;PMS5003;35210;41.606;-87.602;2023-02-28T05:26:28;2.00;2.00;1.00
49343;PMS5003;35210;41.606;-87.602;2023-02-28T05:28:57;2.00;2.00;1.00
49343;PMS5003;35210;41.606;-87.602;2023-02-28T05:31:25;2.80;2.00;1.00
49343;PMS5003;35210;41.606;-87.602;2023-02-28T05:33:53;1.80;1.40;0.00
49343;PMS5003;35210;41.606;-87.602;2023-02-28T05:36:22;1.40;1.40;1.00
49343;PMS5003;35210;41.606;-87.602;2023-02-28T05:38:51;3.00;1.20;1.00
49343;PMS5003;35210;41.606;-87.602;2023-02-28T05:41:20;2.00;2.00;0.80
49343;PMS5003;35210;41.606;-87.602;2023-02-28T05:43:50;1.00;1.00;0.80
49343;PMS5003;35210;41.606;-87.602;2023-02-28T05:46:18;1.00;1.00;0.00
49343;PMS5003;35210;41.606;-87.602;2023-02-28T05:48:46;1.00;1.00;0.20
49343;PMS5003;35210;41.606;-87.602;2023-02-28T05:51:15;0.00;0.00;0.00
49343;PMS5003;35210;41.606;-87.602;2023-02-28T05:53:44;1.00;1.00;0.00
49343;PMS5003;35210;41.606;-87.602;2023-02-28T05:56:13;1.40;1.40;0.20
49343;PMS5003;35210;41.606;-87.602;2023-02-28T05:58:41;1.00;1.00;0.00
49343;PMS5003;35210;41.606;-87.602;2023-02-28T06:01:22;2.00;2.00;1.00
49343;PMS5003;35210;41.606;-87.602;2023-02-28T06:03:51;1.00;1.00;1.00
49343;PMS5003;35210;41.606;-87.602;2023-02-28T06:06:20;2.00;2.00;0.00
49343;PMS5003;35210;41.606;-87.602;2023-02-28T06:08:48;2.80;1.60;0.00
49343;PMS5003;35210;41.606;-87.602;2023-02-28T06:11:16;1.80;1.80;0.60
49343;PMS5003;35210;41.606;-87.602;2023-02-28T06:13:45;1.60;1.60;0.00
49343;PMS5003;35210;41.606;-87.602;2023-02-28T06:16:13;1.20;1.00;1.00
49343;PMS5003;35210;41.606;-87.602;2023-02-28T06:18:43;2.00;1.40;1.00
49343;PMS5003;35210;41.606;-87.602;2023-02-28T06:21:11;2.60;2.20;1.00
49343;PMS5003;35210;41.606;-87.602;2023-02-28T06:23:40;2.00;2.00;1.00
49343;PMS5003;35210;41.606;-87.602;2023-02-28T06:26:08;2.20;2.20;0.40
49343;PMS5003;35210;41.606;-87.602;2023-02-28T06:28:36;3.60;3.60;1.00
49343;PMS5003;35210;41.606;-87.602;2023-02-28T06:31:07;2.00;2.00;1.00
49343;PMS5003;35210;41.606;-87.602;2023-02-28T06:33:36;3.60;3.00;1.60
49343;PMS5003;35210;41.606;-87.602;2023-02-28T06:36:08;6.80;3.20;1.80
49343;PMS5003;35210;41.606;-87.602;2023-02-28T06:38:37;5.20;3.60;1.00
49343;PMS5003;35210;41.606;-87.602;2023-02-28T06:41:05;3.20;3.20;2.00
49343;PMS5003;35210;41.606;-87.602;2023-02-28T06:43:34;4.80;4.80;2.00
49343;PMS5003;35210;41.606;-87.602;2023-02-28T06:46:05;3.20;3.20;2.00
49343;PMS5003;35210;41.606;-87.602;2023-02-28T06:48:35;3.60;3.60;2.00
49343;PMS5003;35210;41.606;-87.602;2023-02-28T06:51:04;4.40;4.40;2.00
49343;PMS5003;35210;41.606;-87.602;2023-02-28T06:53:36;4.80;3.00;2.40
49343;PMS5003;35210;41.606;-87.602;2023-02-28T06:56:04;6.00;4.00;2.00
49343;PMS5003;35210;41.606;-87.602;2023-02-28T06:58:34;4.00;4.00;2.80
49343;PMS5003;35210;41.606;-87.602;2023-02-28T07:01:04;4.00;3.60;2.00
49343;PMS5003;35210;41.606;-87.602;2023-02-28T07:03:35;3.40;3.40;3.00
49343;PMS5003;35210;41.606;-87.602;2023-02-28T07:06:05;3.20;2.80;1.80
49343;PMS5003;35210;41.606;-87.602;2023-02-28T07:08:33;3.00;3.00;2.00
49343;PMS5003;35210;41.606;-87.602;2023-02-28T07:11:03;5.20;3.60;3.00
49343;PMS5003;35210;41.606;-87.602;2023-02-28T07:13:33;7.80;4.80;1.60
49343;PMS5003;35210;41.606;-87.602;2023-02-28T07:16:03;2.00;2.00;1.00
49343;PMS5003;35210;41.606;-87.602;2023-02-28T07:18:33;7.20;4.80;2.00
49343;PMS5003;35210;41.606;-87.602;2023-02-28T07:21:01;3.60;3.60;2.00
49343;PMS5003;35210;41.606;-87.602;2023-02-28T07:23:32;4.40;4.00;1.80
49343;PMS5003;35210;41.606;-87.602;2023-02-28T07:26:01;9.00;6.00;2.20
49343;PMS5003;35210;41.606;-87.602;2023-02-28T07:28:32;6.80;4.00;2.20
49343;PMS5003;35210;41.606;-87.602;2023-02-28T07:31:04;6.40;4.80;3.00
49343;PMS5003;35210;41.606;-87.602;2023-02-28T07:33:33;7.80;6.80;3.40
49343;PMS5003;35210;41.606;-87.602;2023-02-28T07:36:01;7.20;7.20;3.40
49343;PMS5003;35210;41.606;-87.602;2023-02-28T07:38:31;8.40;6.80;3.00
49343;PMS5003;35210;41.606;-87.602;2023-02-28T07:41:03;6.00;6.00;3.60
49343;PMS5003;35210;41.606;-87.602;2023-02-28T07:43:33;6.20;6.20;3.40
49343;PMS5003;35210;41.606;-87.602;2023-02-28T07:46:03;7.80;7.20;4.00
49343;PMS5003;35210;41.606;-87.602;2023-02-28T07:48:33;8.60;7.20;3.60
49343;PMS5003;35210;41.606;-87.602;2023-02-28T07:51:02;7.00;7.00;4.00
49343;PMS5003;35210;41.606;-87.602;2023-02-28T07:53:33;8.80;8.20;4.00
49343;PMS5003;35210;41.606;-87.602;2023-02-28T07:56:03;10.40;8.80;6.00
49343;PMS5003;35210;41.606;-87.602;2023-02-28T07:58:32;8.00;8.00;4.00
49343;PMS5003;35210;41.606;-87.602;2023-02-28T08:01:04;9.00;7.00;4.00
49343;PMS5003;35210;41.606;-87.602;2023-02-28T08:03:33;7.00;6.80;3.80
49343;PMS5003;35210;41.606;-87.602;2023-02-28T08:06:02;7.00;7.00;5.60
49343;PMS5003;35210;41.606;-87.602;2023-02-28T08:08:34;12.20;8.00;4.80
49343;PMS5003;35210;41.606;-87.602;2023-02-28T08:11:03;8.20;7.80;3.80
49343;PMS5003;35210;41.606;-87.602;2023-02-28T08:13:33;8.20;8.20;4.00
49343;PMS5003;35210;41.606;-87.602;2023-02-28T08:16:01;6.00;6.00;3.00
49343;PMS5003;35210;41.606;-87.602;2023-02-28T08:18:30;7.60;7.60;3.60
49343;PMS5003;35210;41.606;-87.602;2023-02-28T08:20:59;7.00;6.00;3.40
49343;PMS5003;35210;41.606;-87.602;2023-02-28T08:23:32;7.20;7.20;4.00
49343;PMS5003;35210;41.606;-87.602;2023-02-28T08:26:01;7.80;7.80;4.00
49343;PMS5003;35210;41.606;-87.602;2023-02-28T08:28:32;10.40;7.80;6.00
49343;PMS5003;35210;41.606;-87.602;2023-02-28T08:31:00;7.20;6.00;2.00
49343;PMS5003;35210;41.606;-87.602;2023-02-28T08:33:33;7.40;7.40;4.00
49343;PMS5003;35210;41.606;-87.602;2023-02-28T08:36:01;6.80;6.40;4.00
49343;PMS5003;35210;41.606;-87.602;2023-02-28T08:38:30;7.60;6.60;3.40
49343;PMS5003;35210;41.606;-87.602;2023-02-28T08:40:59;6.00;6.00;4.00
49343;PMS5003;35210;41.606;-87.602;2023-02-28T08:43:30;10.40;7.20;3.00
49343;PMS5003;35210;41.606;-87.602;2023-02-28T08:45:58;9.00;8.40;5.60
49343;PMS5003;35210;41.606;-87.602;2023-02-28T08:48:27;6.80;6.00;3.80
49343;PMS5003;35210;41.606;-87.602;2023-02-28T08:50:56;8.20;7.80;4.00
49343;PMS5003;35210;41.606;-87.602;2023-02-28T08:53:25;7.00;7.00;3.20
49343;PMS5003;35210;41.606;-87.602;2023-02-28T08:55:56;5.60;5.60;2.80
49343;PMS5003;35210;41.606;-87.602;2023-02-28T08:58:26;4.80;4.40;3.00
49343;PMS5003;35210;41.606;-87.602;2023-02-28T09:00:56;8.00;6.40;3.60
49343;PMS5003;35210;41.606;-87.602;2023-02-28T09:03:24;6.00;6.00;3.60
49343;PMS5003;35210;41.606;-87.602;2023-02-28T09:05:57;6.00;4.00;3.00
49343;PMS5003;35210;41.606;-87.602;2023-02-28T09:08:28;7.80;5.80;3.60
49343;PMS5003;35210;41.606;-87.602;2023-02-28T09:10:57;6.40;5.40;3.00
49343;PMS5003;35210;41.606;-87.602;2023-02-28T09:13:27;10.20;7.20;3.00
49343;PMS5003;35210;41.606;-87.602;2023-02-28T09:15:58;6.40;6.40;3.60
49343;PMS5003;35210;41.606;-87.602;2023-02-28T09:18:27;7.00;7.00;3.00
49343;PMS5003;35210;41.606;-87.602;2023-02-28T09:20:57;3.20;3.20;2.20
49343;PMS5003;35210;41.606;-87.602;2023-02-28T09:23:25;5.20;5.20;3.00
49343;PMS5003;35210;41.606;-87.602;2023-02-28T09:25:54;7.00;7.00;4.00
49343;PMS5003;35210;41.606;-87.602;2023-02-28T09:28:22;9.00;7.20;3.40
49343;PMS5003;35210;41.606;-87.602;2023-02-28T09:30:51;7.60;7.60;3.20
49343;PMS5003;35210;41.606;-87.602;2023-02-28T09:33:24;8.60;8.60;6.00
49343;PMS5003;35210;41.606;-87.602;2023-02-28T09:35:57;7.20;7.20;4.00
49343;PMS5003;35210;41.606;-87.602;2023-02-28T09:38:26;6.80;6.80;3.80
49343;PMS5003;35210;41.606;-87.602;2023-02-28T09:40:55;8.20;7.80;4.00
49343;PMS5003;35210;41.606;-87.602;2023-02-28T09:43:25;8.80;8.00;3.60
49343;PMS5003;35210;41.606;-87.602;2023-02-28T09:45:57;8.80;7.80;4.80
49343;PMS5003;35210;41.606;-87.602;2023-02-28T09:48:33;9.00;7.80;4.00
49343;PMS5003;35210;41.606;-87.602;2023-02-28T09:51:12;8.60;8.60;4.40
49343;PMS5003;35210;41.606;-87.602;2023-02-28T09:53:53;11.00;8.20;4.00
49343;PMS5003;35210;41.606;-87.602;2023-02-28T09:56:24;8.80;7.80;4.00
49343;PMS5003;35210;41.606;-87.602;2023-02-28T09:58:56;8.60;7.00;3.40
49343;PMS5003;35210;41.606;-87.602;2023-02-28T10:01:30;7.60;7.40;3.00
49343;PMS5003;35210;41.606;-87.602;2023-02-28T10:04:08;10.40;10.40;4.40
49343;PMS5003;35210;41.606;-87.602;2023-02-28T10:06:44;11.00;9.00;6.40
49343;PMS5003;35210;41.606;-87.602;2023-02-28T10:09:17;9.80;8.00;4.80
49343;PMS5003;35210;41.606;-87.602;2023-02-28T10:11:49;8.60;7.80;4.00
49343;PMS5003;35210;41.606;-87.602;2023-02-28T10:14:19;12.00;8.00;4.00
49343;PMS5003;35210;41.606;-87.602;2023-02-28T10:16:50;9.20;9.00;6.40
49343;PMS5003;35210;41.606;-87.602;2023-02-28T10:19:26;11.40;8.20;4.80
49343;PMS5003;35210;41.606;-87.602;2023-02-28T10:22:01;11.80;11.80;6.00
49343;PMS5003;35210;41.606;-87.602;2023-02-28T10:24:38;7.20;7.20;3.20
49343;PMS5003;35210;41.606;-87.602;2023-02-28T10:27:13;8.20;7.00;3.00
49343;PMS5003;35210;41.606;-87.602;2023-02-28T10:29:43;7.40;7.20;4.00
49343;PMS5003;35210;41.606;-87.602;2023-02-28T10:32:14;5.00;5.00;1.00
49343;PMS5003;35210;41.606;-87.602;2023-02-28T10:34:46;13.80;12.00;6.00
49343;PMS5003;35210;41.606;-87.602;2023-02-28T10:37:24;13.80;10.00;6.00
49343;PMS5003;35210;41.606;-87.602;2023-02-28T10:39:52;13.60;9.00;6.00
49343;PMS5003;35210;41.606;-87.602;2023-02-28T10:42:25;11.60;11.60;6.00
49343;PMS5003;35210;41.606;-87.602;2023-02-28T10:47:51;15.40;14.00;8.60
49343;PMS5003;35210;41.606;-87.602;2023-02-28T10:53:28;11.40;9.00;5.20
49343;PMS5003;35210;41.606;-87.602;2023-02-28T10:56:00;13.20;10.60;6.00
49343;PMS5003;35210;41.606;-87.602;2023-02-28T10:58:31;14.60;14.60;8.00
49343;PMS5003;35210;41.606;-87.602;2023-02-28T11:01:12;12.00;12.00;7.40
49343;PMS5003;35210;41.606;-87.602;2023-02-28T11:03:42;17.80;13.00;8.00
49343;PMS5003;35210;41.606;-87.602;2023-02-28T11:06:15;16.40;16.00;8.00
49343;PMS5003;35210;41.606;-87.602;2023-02-28T11:08:46;13.80;13.00;6.60
49343;PMS5003;35210;41.606;-87.602;2023-02-28T11:11:16;10.60;10.60;5.20
49343;PMS5003;35210;41.606;-87.602;2023-02-28T11:13:46;15.40;13.40;7.00
49343;PMS5003;35210;41.606;-87.602;2023-02-28T11:16:17;14.40;13.60;7.00
49343;PMS5003;35210;41.606;-87.602;2023-02-28T11:18:47;17.80;15.00;7.20
49343;PMS5003;35210;41.606;-87.602;2023-02-28T11:21:23;19.00;14.40;7.60
49343;PMS5003;35210;41.606;-87.602;2023-02-28T11:23:56;16.00;15.40;8.40
49343;PMS5003;35210;41.606;-87.602;2023-02-28T11:26:36;14.60;13.20;7.00
49343;PMS5003;35210;41.606;-87.602;2023-02-28T11:29:16;13.40;13.40;7.60
49343;PMS5003;35210;41.606;-87.602;2023-02-28T11:34:40;17.20;15.80;8.40
49343;PMS5003;35210;41.606;-87.602;2023-02-28T11:37:14;17.00;12.00;5.00
49343;PMS5003;35210;41.606;-87.602;2023-02-28T11:39:45;13.60;13.00;8.00
49343;PMS5003;35210;41.606;-87.602;2023-02-28T11:42:21;15.00;13.40;7.00
49343;PMS5003;35210;41.606;-87.602;2023-02-28T11:45:22;17.80;15.20;8.00
49343;PMS5003;35210;41.606;-87.602;2023-02-28T11:48:04;18.00;13.60;8.00
49343;PMS5003;35210;41.606;-87.602;2023-02-28T11:50:45;20.40;15.20;8.60
49343;PMS5003;35210;41.606;-87.602;2023-02-28T11:53:24;13.00;11.80;6.00
49343;PMS5003;35210;41.606;-87.602;2023-02-28T11:56:05;16.40;13.60;8.20
49343;PMS5003;35210;41.606;-87.602;2023-02-28T11:58:44;20.20;15.80;8.00
49343;PMS5003;35210;41.606;-87.602;2023-02-28T12:01:25;17.20;15.20;8.20
49343;PMS5003;35210;41.606;-87.602;2023-02-28T12:04:07;13.80;13.80;8.00
49343;PMS5003;35210;41.606;-87.602;2023-02-28T12:06:45;8.80;7.20;4.40
49343;PMS5003;35210;41.606;-87.602;2023-02-28T12:09:33;15.60;13.20;8.60
49343;PMS5003;35210;41.606;-87.602;2023-02-28T12:12:14;17.80;14.20;9.00
49343;PMS5003;35210;41.606;-87.602;2023-02-28T12:15:13;14.60;14.00;7.40
49343;PMS5003;35210;41.606;-87.602;2023-02-28T12:17:53;14.80;14.00;8.00
49343;PMS5003;35210;41.606;-87.602;2023-02-28T12:20:33;13.80;12.80;7.00
49343;PMS5003;35210;41.606;-87.602;2023-02-28T12:23:11;14.60;14.40;7.20
49343;PMS5003;35210;41.606;-87.602;2023-02-28T12:26:03;9.00;8.60;2.00
49343;PMS5003;35210;41.606;-87.602;2023-02-28T12:28:42;17.40;11.40;5.80
49343;PMS5003;35210;41.606;-87.602;2023-02-28T12:31:16;13.60;13.40;7.20
49343;PMS5003;35210;41.606;-87.602;2023-02-28T12:33:50;16.60;13.80;7.60
49343;PMS5003;35210;41.606;-87.602;2023-02-28T12:36:20;12.60;12.40;5.80
49343;PMS5003;35210;41.606;-87.602;2023-02-28T12:38:53;14.20;12.40;7.40
49343;PMS5003;35210;41.606;-87.602;2023-02-28T12:41:29;18.20;15.00;7.60
49343;PMS5003;35210;41.606;-87.602;2023-02-28T12:44:06;18.80;13.80;9.00
49343;PMS5003;35210;41.606;-87.602;2023-02-28T12:46:39;16.40;15.40;7.60
49343;PMS5003;35210;41.606;-87.602;2023-02-28T12:49:12;18.00;16.80;10.20
49343;PMS5003;35210;41.606;-87.602;2023-02-28T12:51:44;13.00;12.60;8.00
49343;PMS5003;35210;41.606;-87.602;2023-02-28T12:54:16;16.20;12.40;6.00
49343;PMS5003;35210;41.606;-87.602;2023-02-28T12:56:56;15.80;10.40;7.00
49343;PMS5003;35210;41.606;-87.602;2023-02-28T12:59:35;15.40;12.60;6.40
49343;PMS5003;35210;41.606;-87.602;2023-02-28T13:02:25;16.60;13.20;7.00
49343;PMS5003;35210;41.606;-87.602;2023-02-28T13:05:27;13.40;9.80;6.00
49343;PMS5003;35210;41.606;-87.602;2023-02-28T13:11:28;16.40;15.60;8.00
49343;PMS5003;35210;41.606;-87.602;2023-02-28T13:14:01;19.60;17.20;8.00
49343;PMS5003;35210;41.606;-87.602;2023-02-28T13:19:39;13.80;13.80;8.00
49343;PMS5003;35210;41.606;-87.602;2023-02-28T13:22:17;14.00;14.00;8.00
49343;PMS5003;35210;41.606;-87.602;2023-02-28T13:24:47;16.80;16.40;7.00
49343;PMS5003;35210;41.606;-87.602;2023-02-28T13:33:24;14.80;14.80;8.40
49343;PMS5003;35210;41.606;-87.602;2023-02-28T13:38:52;10.00;7.20;5.20
49343;PMS5003;35210;41.606;-87.602;2023-02-28T13:41:41;16.40;14.40;7.00
49343;PMS5003;35210;41.606;-87.602;2023-02-28T13:44:10;11.40;10.20;5.60
49343;PMS5003;35210;41.606;-87.602;2023-02-28T13:49:53;15.20;14.60;7.00
49343;PMS5003;35210;41.606;-87.602;2023-02-28T13:52:42;15.40;15.40;9.40
49343;PMS5003;35210;41.606;-87.602;2023-02-28T13:55:19;15.20;14.60;8.00
49343;PMS5003;35210;41.606;-87.602;2023-02-28T13:58:04;14.00;11.00;3.00
49343;PMS5003;35210;41.606;-87.602;2023-02-28T14:00:52;16.40;14.60;8.00
49343;PMS5003;35210;41.606;-87.602;2023-02-28T14:03:42;14.60;13.40;8.00
49343;PMS5003;35210;41.606;-87.602;2023-02-28T14:06:25;13.60;13.60;8.00
49343;PMS5003;35210;41.606;-87.602;2023-02-28T14:08:57;13.00;13.00;8.00
49343;PMS5003;35210;41.606;-87.602;2023-02-28T14:11:33;20.00;14.40;9.00
49343;PMS5003;35210;41.606;-87.602;2023-02-28T14:14:02;15.40;13.40;8.40
49343;PMS5003;35210;41.606;-87.602;2023-02-28T14:16:39;14.40;14.20;8.20
49343;PMS5003;35210;41.606;-87.602;2023-02-28T14:19:12;13.80;11.80;8.00
49343;PMS5003;35210;41.606;-87.602;2023-02-28T14:21:52;20.20;15.80;8.40
49343;PMS5003;35210;41.606;-87.602;2023-02-28T14:27:29;13.80;13.80;6.80
49343;PMS5003;35210;41.606;-87.602;2023-02-28T14:33:22;17.20;14.40;9.40
49343;PMS5003;35210;41.606;-87.602;2023-02-28T14:36:00;15.00;15.00;9.00
49343;PMS5003;35210;41.606;-87.602;2023-02-28T14:38:43;17.20;13.40;7.20
49343;PMS5003;35210;41.606;-87.602;2023-02-28T14:41:17;15.80;14.00;8.00
49343;PMS5003;35210;41.606;-87.602;2023-02-28T14:43:49;12.80;11.40;6.00
49343;PMS5003;35210;41.606;-87.602;2023-02-28T14:46:20;18.40;15.80;9.00
49343;PMS5003;35210;41.606;-87.602;2023-02-28T14:48:49;15.80;15.00;10.00
49343;PMS5003;35210;41.606;-87.602;2023-02-28T14:51:19;16.20;15.00;9.00
49343;PMS5003;35210;41.606;-87.602;2023-02-28T14:53:51;17.20;15.00;7.60
49343;PMS5003;35210;41.606;-87.602;2023-02-28T14:56:23;20.40;18.20;9.00
49343;PMS5003;35210;41.606;-87.602;2023-02-28T14:58:56;23.40;20.40;10.00
49343;PMS5003;35210;41.606;-87.602;2023-02-28T15:01:26;15.80;14.00;6.40
49343;PMS5003;35210;41.606;-87.602;2023-02-28T15:03:58;20.40;17.00;8.40